首页
METAR-TAF:

METAR-TAF

机场 :

阿拉木图国际机场

阿拉木圖, 哈萨克斯坦

纬度: 43-14N, 经度: 076-56E, 海拔: 847米

当前天气观测

该预报发布于24分钟前的00:30 UTC
风速4节,风向西转西南
温度 2°C
湿度 80%
气压 1023 hPa
能見度: 2700
阴天层高于2300英尺
轻雾, 烟

METAR: UAAA 110030Z 24002MPS 2700 BR FU OVC023 02/M01 Q1023 R88/91//50 NOSIG

时间: 06:54 (00:54 UTC)

预报

该预报发布于1小时和54分钟前的23:00 UTC
预报有效从11日的 00点(UTC)到 11日的 24点(UTC)
风速8节,风向西南
能見度: 1200
多云层高于2000英尺, 积雨云.
阴天层高于10000英尺
轻雾, 烟
短暂存在
从 11日的 00点(UTC)到 11日的 04点(UTC)
能見度: 0300
层高于200英尺
冻雾
成为
从 11日的 05点(UTC)到 11日的 06点(UTC)
风速10节,风向西
能見度: 2500
短暂存在
从 11日的 05点(UTC)到 11日的 12点(UTC)
能見度: 1300
短暂存在
从 11日的 12点(UTC)到 11日的 24点(UTC)
能見度: 0300
层高于200英尺
冻雾

TAF: UAAA 102300Z 1100/1124 22004MPS 1200 BR FU BKN020CB OVC100 TX05/1109Z TNM02/1101Z TEMPO 1100/1104 0300 FZFG VV002 BECMG 1105/1106 26005MPS 2500 TEMPO 1105/1112 1300 TEMPO 1112/1124 0300 FZFG VV002

超过4000个机场的气象观测和天气预报(METAR&TAF报告)。

可查询的气象台以黄色和红色小点在地图上表示。

将鼠标移到小点上方,可查看气象台名称。

然后点击查看天气观测和预报。

如需切换地图:点击带黑十字的绿色按钮放大地图;点击带横线的绿色按钮缩小地图;或者点击绿色箭头查看邻近地区的地图。


METAR-TAF: